메인 페이지
METAR-TAF:

METAR-TAF

공항 :

Pirassununga, 상파울루, 브라질

위도: 21-59S, 경도: 047-20W, 고도: 597m

현재 날씨관측

예보는 1 시간 18분 전, 20:00시(UTC)에 발표되었습니다.
남남동4kt
온도 27°C
습도 32%
기압 1022 hPa
시정 10km 이상
1500m 미만 상공 구름 및 적란운 없음

METAR: SBYS 202000Z 16004KT CAVOK 27/09 Q1022

시각: 18:18 (21:18 UTC)

예보

예보는 6 시간 18분 전, 15:00시(UTC)에 발표되었습니다.
예보 대상 시간: 20일 18시부터 21일 06시까지 (UTC)
5kt
시정 10km 이상
1500m 미만 상공 구름 및 적란운 없음

TAF: SBYS 201500Z 2018/2106 17005KT CAVOK TX28/2018Z TN13/2105Z RMK PFP

4,000개 이상의 공항 관측 자료 및 예보 (METAR 및 TAF 보고).

지도상에서 검색 가능한 기상관측소가 노란 점과 빨간 점으로 표시되어 있습니다.

기상관측소 명을 보려면 표시 위로 마우스를 이동하세요.

날씨 관측과 예보를 보려면 클릭하세요.

지도 변경 : 확대하려면 엑스 표시가 있는 녹색 버튼, 축소하려면 빼기 표시가 있는 녹색 버튼, 다음 페이지의 지도를 보려면 녹색 화살표를 클릭하세요.


METAR-TAF: